createdAt,value
2023-12-12T00:01:22.970Z,7.77
2023-12-12T00:03:50.191Z,13.07
2023-12-12T00:06:17.834Z,13.33
2023-12-12T00:08:45.079Z,9.10
2023-12-12T00:11:11.905Z,11.10
2023-12-12T00:13:38.798Z,11.53
2023-12-12T00:16:08.137Z,8.23
2023-12-12T00:18:38.183Z,9.47
2023-12-12T00:21:07.091Z,9.23
2023-12-12T00:23:33.977Z,10.27
2023-12-12T00:26:00.857Z,8.93
2023-12-12T00:28:27.838Z,9.47
2023-12-12T00:30:54.983Z,9.70
2023-12-12T00:33:22.471Z,9.67
2023-12-12T00:35:49.565Z,13.17
2023-12-12T00:38:16.563Z,11.27
2023-12-12T00:40:53.213Z,6.40
2023-12-12T00:43:20.667Z,8.20
2023-12-12T00:45:47.681Z,11.77
2023-12-12T00:48:14.641Z,9.50
2023-12-12T00:50:41.555Z,9.73
2023-12-12T00:53:08.390Z,11.60
2023-12-12T00:55:35.313Z,8.50
2023-12-12T00:58:02.244Z,12.40
2023-12-12T01:00:29.236Z,13.47
2023-12-12T01:02:56.376Z,8.07
2023-12-12T01:05:23.326Z,11.60
2023-12-12T01:07:50.277Z,9.20
2023-12-12T01:10:17.168Z,12.00
2023-12-12T01:12:44.190Z,9.57
2023-12-12T01:15:11.274Z,8.40
2023-12-12T01:17:38.451Z,8.70
2023-12-12T01:20:08.788Z,10.37
2023-12-12T01:22:36.186Z,9.93
2023-12-12T01:25:04.767Z,12.63
2023-12-12T01:27:31.948Z,9.50
2023-12-12T01:29:58.996Z,11.93
2023-12-12T01:32:26.477Z,12.90
2023-12-12T01:34:53.494Z,10.67
2023-12-12T01:37:20.447Z,11.23
2023-12-12T01:39:47.302Z,9.40
2023-12-12T01:42:14.173Z,10.40
2023-12-12T01:44:41.021Z,8.80
2023-12-12T01:47:08.864Z,11.27
2023-12-12T01:49:36.220Z,10.43
2023-12-12T01:52:03.558Z,11.70
2023-12-12T01:54:31.118Z,9.10
2023-12-12T01:56:58.947Z,11.53
2023-12-12T01:59:27.228Z,8.23
2023-12-12T02:01:55.746Z,9.30
2023-12-12T02:04:23.254Z,7.63
2023-12-12T02:06:52.775Z,11.47
2023-12-12T02:09:20.305Z,11.97
2023-12-12T02:11:47.074Z,14.43
2023-12-12T02:14:13.948Z,9.93
2023-12-12T02:16:40.883Z,10.80
2023-12-12T02:19:07.869Z,11.00
2023-12-12T02:21:34.784Z,8.97
2023-12-12T02:24:02.002Z,15.63
2023-12-12T02:26:28.947Z,9.63
2023-12-12T02:28:56.261Z,12.47
2023-12-12T02:31:23.063Z,8.43
2023-12-12T02:33:50.189Z,9.90
2023-12-12T02:36:17.083Z,9.77
2023-12-12T02:38:43.858Z,15.47
2023-12-12T02:41:10.698Z,16.73
2023-12-12T02:43:39.025Z,9.73
2023-12-12T02:46:06.391Z,11.93
2023-12-12T02:48:33.525Z,9.33
2023-12-12T02:51:00.530Z,13.57
2023-12-12T02:53:27.424Z,9.10
2023-12-12T02:55:54.295Z,14.30
2023-12-12T02:58:21.222Z,11.97
2023-12-12T03:00:48.091Z,11.57
2023-12-12T03:03:15.080Z,12.60
2023-12-12T03:05:42.017Z,11.43
2023-12-12T03:08:08.956Z,13.97
2023-12-12T03:10:35.819Z,14.80
2023-12-12T03:13:02.760Z,13.57
2023-12-12T03:15:29.622Z,14.57
2023-12-12T03:17:56.489Z,25.60
2023-12-12T03:20:23.454Z,19.23
2023-12-12T03:22:50.302Z,21.10
2023-12-12T03:25:17.300Z,17.53
2023-12-12T03:27:44.188Z,19.17
2023-12-12T03:30:11.482Z,16.47
2023-12-12T03:32:39.049Z,17.40
2023-12-12T03:35:06.011Z,18.70
2023-12-12T03:37:33.243Z,26.73
2023-12-12T03:40:00.383Z,17.03
2023-12-12T03:42:27.246Z,20.50
2023-12-12T03:44:54.126Z,24.70
2023-12-12T03:47:21.026Z,16.10
2023-12-12T03:49:47.955Z,22.93
2023-12-12T03:52:15.222Z,17.77
2023-12-12T03:54:42.087Z,18.47
2023-12-12T03:57:09.032Z,18.77
2023-12-12T03:59:35.865Z,22.53
2023-12-12T04:02:02.869Z,19.40
2023-12-12T04:04:29.727Z,18.83
2023-12-12T04:06:56.805Z,21.53
2023-12-12T04:09:23.693Z,23.47
2023-12-12T04:11:50.588Z,18.43
2023-12-12T04:14:17.649Z,20.80
2023-12-12T04:25:03.385Z,28.43
2023-12-12T04:27:30.595Z,33.53
2023-12-12T04:34:09.230Z,27.40
2023-12-12T04:36:36.052Z,26.00
2023-12-12T04:39:03.206Z,28.90
2023-12-12T04:41:30.039Z,30.87
2023-12-12T04:43:56.977Z,28.90
2023-12-12T04:46:23.863Z,24.33
2023-12-12T04:48:51.018Z,29.00
2023-12-12T04:51:17.882Z,21.20
2023-12-12T04:53:44.678Z,34.50
2023-12-12T04:56:11.587Z,27.07
2023-12-12T04:58:38.460Z,28.23
2023-12-12T05:01:05.749Z,27.17
2023-12-12T05:03:33.998Z,25.43
2023-12-12T05:06:01.703Z,20.80
2023-12-12T05:08:28.573Z,25.83
2023-12-12T05:10:55.726Z,27.43
2023-12-12T05:13:22.703Z,24.63
2023-12-12T05:15:49.710Z,25.10
2023-12-12T05:18:16.823Z,29.03
2023-12-12T05:20:44.042Z,25.13
2023-12-12T05:23:12.205Z,25.40
2023-12-12T05:25:39.152Z,24.30
2023-12-12T05:28:06.022Z,24.93
2023-12-12T05:30:32.975Z,25.07
2023-12-12T05:32:59.878Z,28.27
2023-12-12T05:35:27.157Z,28.80
2023-12-12T05:37:53.948Z,25.13
2023-12-12T05:40:20.775Z,27.23
2023-12-12T05:42:47.616Z,28.47
2023-12-12T05:49:22.666Z,25.87
2023-12-12T05:51:49.846Z,31.63
2023-12-12T05:54:16.863Z,30.97
2023-12-12T05:56:44.528Z,29.00
2023-12-12T05:59:15.308Z,29.90
2023-12-12T06:01:43.230Z,32.93
2023-12-12T06:04:14.459Z,31.37
2023-12-12T06:06:43.611Z,33.63
2023-12-12T06:09:14.322Z,35.10
2023-12-12T06:11:43.218Z,33.63
2023-12-12T06:14:10.428Z,30.10
2023-12-12T06:16:39.212Z,33.57
2023-12-12T06:19:07.064Z,35.23
2023-12-12T06:21:34.860Z,36.90
2023-12-12T06:24:03.415Z,30.60
2023-12-12T06:26:33.504Z,27.13
2023-12-12T06:29:00.596Z,26.03
2023-12-12T06:31:27.845Z,30.70
2023-12-12T06:33:55.004Z,36.10
2023-12-12T06:36:22.094Z,34.70
2023-12-12T06:38:49.032Z,29.97
2023-12-12T06:41:15.877Z,36.00
2023-12-12T06:43:46.456Z,37.97
2023-12-12T06:46:13.373Z,33.70
2023-12-12T06:48:40.461Z,27.00
2023-12-12T06:51:07.883Z,33.67
2023-12-12T06:53:34.811Z,27.97
2023-12-12T06:56:02.094Z,36.87
2023-12-12T06:58:28.947Z,28.47
2023-12-12T07:00:56.392Z,36.17
2023-12-12T07:03:23.337Z,32.20
2023-12-12T07:05:52.329Z,31.93
2023-12-12T07:08:20.101Z,34.00
2023-12-12T07:10:47.738Z,25.83
2023-12-12T07:15:59.585Z,35.50
2023-12-12T07:18:26.654Z,36.13
2023-12-12T07:20:54.322Z,32.53
2023-12-12T07:23:21.210Z,35.17
2023-12-12T07:25:48.228Z,23.10
2023-12-12T07:28:15.334Z,32.70
2023-12-12T07:30:43.491Z,27.80
2023-12-12T07:33:10.652Z,23.30
2023-12-12T07:35:37.743Z,35.20
2023-12-12T07:38:04.690Z,30.60
2023-12-12T07:40:32.080Z,28.60
2023-12-12T07:42:59.446Z,36.60
2023-12-12T07:45:26.494Z,25.33
2023-12-12T07:47:54.032Z,29.07
2023-12-12T07:50:21.916Z,25.47
2023-12-12T07:52:49.631Z,29.97
2023-12-12T07:55:16.817Z,26.43
2023-12-12T07:57:43.935Z,25.43
2023-12-12T08:00:11.628Z,37.43
2023-12-12T08:02:38.802Z,45.20
2023-12-12T08:05:07.292Z,29.83
2023-12-12T08:07:34.578Z,33.87
2023-12-12T08:10:01.772Z,29.97
2023-12-12T08:12:28.769Z,28.87
2023-12-12T08:14:56.610Z,34.43
2023-12-12T08:17:23.801Z,36.43
2023-12-12T08:19:50.843Z,42.57
2023-12-12T08:22:17.870Z,27.83
2023-12-12T08:24:46.470Z,42.10
2023-12-12T08:27:14.234Z,33.77
2023-12-12T08:29:41.220Z,34.13
2023-12-12T08:32:08.026Z,33.13
2023-12-12T08:34:34.989Z,34.47
2023-12-12T08:37:02.383Z,38.30
2023-12-12T08:39:30.084Z,35.30
2023-12-12T08:41:57.016Z,40.00
2023-12-12T08:44:24.448Z,43.63
2023-12-12T08:46:51.751Z,37.00
2023-12-12T08:49:19.903Z,35.30
2023-12-12T08:51:47.100Z,39.83
2023-12-12T08:54:14.032Z,32.87
2023-12-12T08:56:42.783Z,43.80
2023-12-12T08:59:09.637Z,26.30
2023-12-12T09:01:36.551Z,31.60
2023-12-12T09:04:03.875Z,29.50
2023-12-12T09:06:30.792Z,28.43
2023-12-12T09:08:57.693Z,33.53
2023-12-12T09:11:24.539Z,38.20
2023-12-12T09:13:51.352Z,35.47
2023-12-12T09:16:18.267Z,32.70
2023-12-12T09:18:45.390Z,37.43
2023-12-12T09:21:12.622Z,29.50
2023-12-12T09:23:42.694Z,29.93
2023-12-12T09:26:16.472Z,26.70
2023-12-12T09:28:43.884Z,34.43
2023-12-12T09:31:11.799Z,36.37
2023-12-12T09:33:39.276Z,30.43
2023-12-12T09:36:10.366Z,29.80
2023-12-12T09:38:37.528Z,32.57
2023-12-12T09:41:04.693Z,26.67
2023-12-12T09:43:32.689Z,34.03
2023-12-12T09:46:00.558Z,31.40
2023-12-12T09:48:27.439Z,36.30
2023-12-12T09:50:57.889Z,27.47
2023-12-12T09:53:25.227Z,29.03
2023-12-12T09:55:53.536Z,28.07
2023-12-12T09:58:20.488Z,22.37
2023-12-12T10:00:47.669Z,24.30
2023-12-12T10:03:15.320Z,23.83
2023-12-12T10:05:48.358Z,23.00
2023-12-12T10:08:16.080Z,26.03
2023-12-12T10:10:43.517Z,24.73
2023-12-12T10:13:10.837Z,39.93
2023-12-12T10:15:37.820Z,27.90
2023-12-12T10:18:04.865Z,32.37
2023-12-12T10:20:33.043Z,31.90
2023-12-12T10:23:02.995Z,24.80
2023-12-12T10:25:30.774Z,31.40
2023-12-12T10:27:58.886Z,26.40
2023-12-12T10:30:27.288Z,23.23
2023-12-12T10:32:55.280Z,30.07
2023-12-12T10:35:23.564Z,31.20
2023-12-12T10:37:51.926Z,21.83
2023-12-12T10:40:22.924Z,25.97
2023-12-12T10:42:50.581Z,33.93
2023-12-12T10:45:18.539Z,28.40
2023-12-12T10:47:50.891Z,32.03
2023-12-12T10:50:19.317Z,26.23
2023-12-12T10:52:49.355Z,33.07
2023-12-12T10:55:17.401Z,28.43
2023-12-12T10:57:45.964Z,26.43
2023-12-12T11:00:17.822Z,30.73
2023-12-12T11:02:47.461Z,23.40
2023-12-12T11:05:16.367Z,24.50
2023-12-12T11:07:49.104Z,32.60
2023-12-12T11:10:19.965Z,28.10
2023-12-12T11:12:51.947Z,23.77
2023-12-12T11:15:20.235Z,22.70
2023-12-12T11:17:49.479Z,29.63
2023-12-12T11:20:18.538Z,30.57
2023-12-12T11:22:51.894Z,30.17
2023-12-12T11:25:23.697Z,40.50
2023-12-12T11:27:53.952Z,26.77
2023-12-12T11:30:30.582Z,26.40
2023-12-12T11:32:58.433Z,25.50
2023-12-12T11:35:33.502Z,24.27
2023-12-12T11:38:06.317Z,22.20
2023-12-12T11:40:38.603Z,23.67
2023-12-12T11:43:25.029Z,32.40
2023-12-12T11:45:53.453Z,32.13
2023-12-12T11:48:20.559Z,22.53
2023-12-12T11:50:47.624Z,23.33
2023-12-12T11:53:41.946Z,27.47
2023-12-12T11:56:09.047Z,22.93
2023-12-12T11:58:36.947Z,25.53
2023-12-12T12:01:04.171Z,32.40
2023-12-12T12:03:31.146Z,26.53
2023-12-12T12:05:58.284Z,28.87
2023-12-12T12:08:26.751Z,29.50
2023-12-12T12:10:58.009Z,21.70
2023-12-12T12:13:25.061Z,19.77
2023-12-12T12:15:51.998Z,18.53
2023-12-12T12:18:28.571Z,23.77
2023-12-12T12:20:55.912Z,23.23
2023-12-12T12:23:23.984Z,22.30
2023-12-12T12:25:51.642Z,28.10
2023-12-12T12:28:18.509Z,24.60
2023-12-12T12:30:47.502Z,21.83
2023-12-12T12:33:14.775Z,20.67
2023-12-12T12:35:51.894Z,16.90
2023-12-12T12:38:32.737Z,19.23
2023-12-12T12:41:00.279Z,19.33
2023-12-12T12:43:27.765Z,18.60
2023-12-12T12:45:55.250Z,22.70
2023-12-12T12:48:22.659Z,18.27
2023-12-12T12:50:51.029Z,20.30
2023-12-12T12:53:18.764Z,21.20
2023-12-12T12:55:46.209Z,20.37
2023-12-12T12:58:14.390Z,19.93
2023-12-12T13:00:45.742Z,19.10
2023-12-12T13:03:14.528Z,23.20
2023-12-12T13:05:41.650Z,14.70
2023-12-12T13:08:08.714Z,22.70
2023-12-12T13:10:43.975Z,12.30
2023-12-12T13:13:17.547Z,14.70
2023-12-12T13:15:44.742Z,18.00
2023-12-12T13:18:11.754Z,14.83
2023-12-12T13:20:38.825Z,8.87
2023-12-12T13:23:05.733Z,9.57
2023-12-12T13:25:32.941Z,8.33
2023-12-12T13:28:00.397Z,10.90
2023-12-12T13:30:27.414Z,16.53
2023-12-12T13:32:54.668Z,12.80
2023-12-12T13:35:33.970Z,13.80
2023-12-12T13:38:04.539Z,12.00
2023-12-12T13:40:32.579Z,13.23
2023-12-12T13:42:59.857Z,11.43
2023-12-12T13:45:26.861Z,15.23
2023-12-12T13:47:53.890Z,12.97
2023-12-12T13:50:21.648Z,12.20
2023-12-12T13:52:48.558Z,11.33
2023-12-12T13:55:15.653Z,18.77
2023-12-12T13:57:42.533Z,15.27
2023-12-12T14:00:10.944Z,13.67
2023-12-12T14:02:38.546Z,15.17
2023-12-12T14:05:06.846Z,20.10
2023-12-12T14:07:34.008Z,16.53
2023-12-12T14:10:02.189Z,20.10
2023-12-12T14:12:29.146Z,20.23
2023-12-12T14:14:57.216Z,14.07
2023-12-12T14:17:24.225Z,15.93
2023-12-12T14:19:51.701Z,20.97
2023-12-12T14:22:18.572Z,20.50
2023-12-12T14:24:45.460Z,15.73
2023-12-12T14:27:12.296Z,17.97
2023-12-12T14:29:39.334Z,20.47
2023-12-12T14:32:07.302Z,13.40
2023-12-12T14:34:34.670Z,14.43
2023-12-12T14:37:02.457Z,21.00
2023-12-12T14:39:29.617Z,17.57
2023-12-12T14:41:56.559Z,18.50
2023-12-12T14:44:23.449Z,16.60
2023-12-12T14:46:51.914Z,18.63
2023-12-12T14:49:18.946Z,18.80
2023-12-12T14:51:45.893Z,15.87
2023-12-12T14:54:12.945Z,16.20
2023-12-12T14:56:43.373Z,14.73
2023-12-12T14:59:10.902Z,21.40
2023-12-12T15:01:37.952Z,16.93
2023-12-12T15:04:05.317Z,19.77
2023-12-12T15:06:32.856Z,23.23
2023-12-12T15:09:00.678Z,23.67
2023-12-12T15:11:27.620Z,18.53
2023-12-12T15:13:54.410Z,22.57
2023-12-12T15:16:21.344Z,17.17
2023-12-12T15:18:48.436Z,27.13
2023-12-12T15:21:15.676Z,19.77
2023-12-12T15:23:42.813Z,23.10
2023-12-12T15:26:09.800Z,22.50
2023-12-12T15:28:36.754Z,16.40
2023-12-12T15:31:03.963Z,27.40
2023-12-12T15:33:34.260Z,27.17
2023-12-12T15:36:08.108Z,23.50
2023-12-12T15:38:38.176Z,19.03
2023-12-12T15:41:05.431Z,21.47
2023-12-12T15:43:35.099Z,26.07
2023-12-12T15:46:02.661Z,21.73
2023-12-12T15:48:30.081Z,20.50
2023-12-12T15:50:57.155Z,27.97
2023-12-12T15:53:23.979Z,27.10
2023-12-12T15:55:53.850Z,24.53
2023-12-12T15:58:21.021Z,20.50
2023-12-12T16:00:48.137Z,23.23
2023-12-12T16:03:15.022Z,17.80
2023-12-12T16:05:43.690Z,24.93
2023-12-12T16:08:13.132Z,25.77
2023-12-12T16:10:40.226Z,22.67
2023-12-12T16:13:07.142Z,25.03
2023-12-12T16:15:34.065Z,36.03
2023-12-12T16:18:01.169Z,23.67
2023-12-12T16:20:28.243Z,24.50
2023-12-12T16:22:55.210Z,31.53
2023-12-12T16:25:22.188Z,39.23
2023-12-12T16:27:51.938Z,24.90
2023-12-12T16:30:20.710Z,30.87
2023-12-12T16:32:54.195Z,35.27
2023-12-12T16:35:23.981Z,30.13
2023-12-12T16:37:51.328Z,41.93
2023-12-12T16:40:18.266Z,28.00
2023-12-12T16:42:45.208Z,30.83
2023-12-12T16:45:15.333Z,24.33
2023-12-12T16:47:42.795Z,24.57
2023-12-12T16:50:11.664Z,30.57
2023-12-12T16:52:39.015Z,29.13
2023-12-12T16:55:08.080Z,22.67
2023-12-12T16:57:37.338Z,22.60
2023-12-12T17:00:08.714Z,30.43
2023-12-12T17:02:35.620Z,24.27
2023-12-12T17:05:02.617Z,28.63
2023-12-12T17:07:29.617Z,42.30
2023-12-12T17:09:56.625Z,40.10
2023-12-12T17:12:23.569Z,30.17
2023-12-12T17:14:53.858Z,34.87
2023-12-12T17:17:20.953Z,33.60
2023-12-12T17:19:47.940Z,36.80
2023-12-12T17:22:14.856Z,32.53
2023-12-12T17:24:41.744Z,30.60
2023-12-12T17:27:08.549Z,33.70
2023-12-12T17:29:35.466Z,40.70
2023-12-12T17:32:09.240Z,31.20
2023-12-12T17:34:38.042Z,31.83
2023-12-12T17:37:05.012Z,30.90
2023-12-12T17:39:31.894Z,38.10
2023-12-12T17:42:01.025Z,29.60
2023-12-12T17:44:29.324Z,33.33
2023-12-12T17:46:56.137Z,39.83
2023-12-12T17:49:22.955Z,40.67
2023-12-12T17:51:49.825Z,43.90
2023-12-12T17:54:16.925Z,38.13
2023-12-12T17:56:43.820Z,33.10
2023-12-12T17:59:10.965Z,26.03
2023-12-12T18:01:38.709Z,40.47
2023-12-12T18:04:05.999Z,33.53
2023-12-12T18:06:33.498Z,31.83
2023-12-12T18:09:00.841Z,35.00
2023-12-12T18:11:28.338Z,27.13
2023-12-12T18:13:55.497Z,19.30
2023-12-12T18:16:22.629Z,20.40
2023-12-12T18:18:49.983Z,20.33
2023-12-12T18:21:18.996Z,20.83
2023-12-12T18:23:46.012Z,18.83
2023-12-12T18:26:13.134Z,20.23
2023-12-12T18:28:44.209Z,28.60
2023-12-12T18:31:11.476Z,29.93
2023-12-12T18:33:38.668Z,21.17
2023-12-12T18:36:06.532Z,22.97
2023-12-12T18:38:33.352Z,24.47
2023-12-12T18:41:00.180Z,20.07
2023-12-12T18:43:27.154Z,25.77
2023-12-12T18:45:54.087Z,25.77
2023-12-12T18:48:21.096Z,33.53
2023-12-12T18:50:48.013Z,27.63
2023-12-12T18:53:14.925Z,28.13
2023-12-12T18:55:41.844Z,36.27
2023-12-12T18:58:08.798Z,21.43
2023-12-12T19:00:36.170Z,24.23
2023-12-12T19:03:05.068Z,25.93
2023-12-12T19:05:32.298Z,28.07
2023-12-12T19:08:00.743Z,31.17
2023-12-12T19:10:27.572Z,24.37
2023-12-12T19:12:54.921Z,23.67
2023-12-12T19:15:23.173Z,22.80
2023-12-12T19:17:50.219Z,23.80
2023-12-12T19:20:18.202Z,25.47
2023-12-12T19:22:45.246Z,23.43
2023-12-12T19:25:12.251Z,34.90
2023-12-12T19:27:39.101Z,22.20
2023-12-12T19:30:10.649Z,31.37
2023-12-12T19:32:38.800Z,31.60
2023-12-12T19:35:07.997Z,24.53
2023-12-12T19:37:36.536Z,25.83
2023-12-12T19:40:07.529Z,33.20
2023-12-12T19:42:35.119Z,30.60
2023-12-12T19:45:03.112Z,28.17
2023-12-12T19:47:30.300Z,41.67
2023-12-12T19:49:58.522Z,42.77
2023-12-12T19:52:28.079Z,38.97
2023-12-12T19:54:54.927Z,31.23
2023-12-12T19:57:21.849Z,30.27
2023-12-12T19:59:49.451Z,40.43
2023-12-12T20:02:16.946Z,39.17
2023-12-12T20:04:43.917Z,32.00
2023-12-12T20:07:11.941Z,29.53
2023-12-12T20:09:42.481Z,36.40
2023-12-12T20:12:12.537Z,25.80
2023-12-12T20:14:39.537Z,22.30
2023-12-12T20:17:06.696Z,19.50
2023-12-12T20:19:34.084Z,18.07
2023-12-12T20:22:01.221Z,23.43
2023-12-12T20:24:29.155Z,22.47
2023-12-12T20:26:56.353Z,23.43
2023-12-12T20:29:23.200Z,29.30
2023-12-12T20:31:50.275Z,32.43
2023-12-12T20:34:17.372Z,31.93
2023-12-12T20:36:44.398Z,25.33
2023-12-12T20:39:13.507Z,29.63
2023-12-12T20:41:42.505Z,27.93
2023-12-12T20:44:09.355Z,25.10
2023-12-12T20:46:40.132Z,24.63
2023-12-12T20:49:07.208Z,20.83
2023-12-12T20:51:36.588Z,23.87
2023-12-12T20:54:05.374Z,25.97
2023-12-12T20:56:34.759Z,20.03
2023-12-12T20:59:01.655Z,25.10
2023-12-12T21:01:28.551Z,25.47
2023-12-12T21:03:55.994Z,30.57
2023-12-12T21:06:22.990Z,22.57
2023-12-12T21:08:49.880Z,25.20
2023-12-12T21:11:16.874Z,26.50
2023-12-12T21:13:43.733Z,18.33
2023-12-12T21:16:20.323Z,18.43
2023-12-12T21:18:47.498Z,22.87
2023-12-12T21:21:14.490Z,22.33
2023-12-12T21:23:41.495Z,17.80
2023-12-12T21:26:08.946Z,18.80
2023-12-12T21:28:39.151Z,23.47
2023-12-12T21:31:07.457Z,22.20
2023-12-12T21:33:34.754Z,16.40
2023-12-12T21:36:01.855Z,17.53
2023-12-12T21:38:29.771Z,25.87
2023-12-12T21:40:56.954Z,15.90
2023-12-12T21:43:23.989Z,14.17
2023-12-12T21:45:52.313Z,17.10
2023-12-12T21:48:19.524Z,12.83
2023-12-12T21:50:46.437Z,18.50
2023-12-12T21:53:13.255Z,15.63
2023-12-12T21:55:40.818Z,15.30
2023-12-12T21:58:08.192Z,13.03
2023-12-12T22:00:35.101Z,14.60
2023-12-12T22:03:01.914Z,18.60
2023-12-12T22:05:28.752Z,15.57
2023-12-12T22:07:55.682Z,25.77
2023-12-12T22:10:22.572Z,17.33
2023-12-12T22:12:49.417Z,24.47
2023-12-12T22:15:16.303Z,17.40
2023-12-12T22:17:43.518Z,14.57
2023-12-12T22:20:10.878Z,11.47
2023-12-12T22:22:40.023Z,13.57
2023-12-12T22:25:07.416Z,12.27
2023-12-12T22:27:34.836Z,17.27
2023-12-12T22:30:02.428Z,17.60
2023-12-12T22:32:29.485Z,11.27
2023-12-12T22:34:56.500Z,13.03
2023-12-12T22:37:23.496Z,13.63
2023-12-12T22:39:50.536Z,22.40
2023-12-12T22:42:17.401Z,18.33
2023-12-12T22:44:44.242Z,17.77
2023-12-12T22:47:12.169Z,11.87
2023-12-12T22:49:39.373Z,17.13
2023-12-12T22:52:06.750Z,10.40
2023-12-12T22:54:33.710Z,16.73
2023-12-12T22:57:00.930Z,15.50
2023-12-12T22:59:27.853Z,11.27
2023-12-12T23:01:54.755Z,12.90
2023-12-12T23:04:21.681Z,12.07
2023-12-12T23:06:49.296Z,9.23
2023-12-12T23:09:16.271Z,13.87
2023-12-12T23:11:43.098Z,10.30
2023-12-12T23:14:09.941Z,11.03
2023-12-12T23:16:37.116Z,9.90
2023-12-12T23:19:04.022Z,13.17
2023-12-12T23:21:31.060Z,11.80
2023-12-12T23:23:58.852Z,10.80
2023-12-12T23:26:26.659Z,9.53
2023-12-12T23:28:53.566Z,10.30
2023-12-12T23:31:20.564Z,12.23
2023-12-12T23:33:47.765Z,14.07
2023-12-12T23:36:14.665Z,14.67
2023-12-12T23:38:41.504Z,9.10
2023-12-12T23:41:08.300Z,7.03
2023-12-12T23:43:36.850Z,13.50
2023-12-12T23:46:04.815Z,11.00
2023-12-12T23:48:31.707Z,12.00
2023-12-12T23:50:58.706Z,8.30
2023-12-12T23:53:33.601Z,11.87
2023-12-12T23:56:01.630Z,17.00
2023-12-12T23:58:28.444Z,11.53
